Time;durP1;ratioP1;P1;durP2;ratioP2;P2;SDS_P1;SDS_P2;PMS_P1;PMS_P2;Temp;Humidity;BMP_temperature;BMP_pressure;BME280_temperature;BME280_humidity;BME280_pressure;Samples;Min_cycle;Max_cycle;Signal;HPM_P1;HPM_P2
2023/11/23 00:00:08;;;;;;;1999.90;999.90;;;7.30;99.90;;;;;;5013632;28;20479;-69
2023/11/23 00:02:34;;;;;;;1999.90;999.90;;;7.40;1.80;;;;;;5013375;28;20487;-69
2023/11/23 00:04:59;;;;;;;1999.90;999.90;;;7.40;92.90;;;;;;5013517;28;20401;-69
2023/11/23 00:07:25;;;;;;;1999.90;999.90;;;7.40;99.90;;;;;;5013538;28;20171;-69
2023/11/23 00:09:50;;;;;;;1999.90;999.90;;;7.50;99.90;;;;;;5013245;28;20169;-69
2023/11/23 00:12:16;;;;;;;1999.90;999.90;;;7.40;1.00;;;;;;5013419;28;20181;-69
2023/11/23 00:14:41;;;;;;;1999.90;999.90;;;7.50;84.40;;;;;;5012987;28;20627;-69
2023/11/23 00:17:08;;;;;;;1999.90;999.90;;;7.50;99.20;;;;;;5013276;28;20169;-69
2023/11/23 00:19:34;;;;;;;1999.90;999.90;;;7.40;56.10;;;;;;5012821;28;20592;-69
2023/11/23 00:21:59;;;;;;;1999.90;999.90;;;7.40;99.90;;;;;;5013044;28;20417;-69
2023/11/23 00:24:25;;;;;;;1999.90;999.90;;;7.40;99.90;;;;;;5013132;28;20943;-69
2023/11/23 00:26:53;;;;;;;1999.90;999.90;;;7.50;99.90;;;;;;5012916;28;20181;-69
2023/11/23 00:29:20;;;;;;;1999.90;999.90;;;7.50;1.00;;;;;;5012741;28;20695;-69
2023/11/23 00:31:46;;;;;;;1999.90;999.90;;;7.50;99.90;;;;;;5012849;28;20434;-69
2023/11/23 00:34:11;;;;;;;1999.90;999.90;;;7.60;99.90;;;;;;5013040;28;20483;-69
2023/11/23 00:36:37;;;;;;;1999.90;999.90;;;7.50;99.90;;;;;;5012622;28;20181;-69
2023/11/23 00:39:04;;;;;;;1999.90;999.90;;;7.60;38.00;;;;;;5012829;28;20176;-69
2023/11/23 00:41:29;;;;;;;1999.90;999.90;;;7.60;99.90;;;;;;5012612;28;20463;-69
2023/11/23 00:43:56;;;;;;;1999.90;999.90;;;7.60;1.00;;;;;;5012741;28;20447;-69
2023/11/23 00:46:22;;;;;;;1999.90;999.90;;;7.60;1.00;;;;;;5012665;28;20681;-69
2023/11/23 00:48:48;;;;;;;1999.90;999.90;;;7.60;1.00;;;;;;5012755;28;20405;-69
2023/11/23 00:51:14;;;;;;;1999.90;999.90;;;7.70;1.00;;;;;;5013094;28;20929;-69
2023/11/23 00:53:39;;;;;;;1999.90;999.90;;;7.70;99.90;;;;;;5012653;28;20224;-69
2023/11/23 00:56:05;;;;;;;1999.90;999.90;;;7.70;99.90;;;;;;5012436;28;20192;-69
2023/11/23 00:58:31;;;;;;;1999.90;999.90;;;7.70;99.90;;;;;;5012601;28;20252;-69
2023/11/23 01:00:56;;;;;;;1999.90;999.90;;;7.70;1.00;;;;;;5012411;28;20195;-69
2023/11/23 01:03:24;;;;;;;1999.90;999.90;;;7.70;99.90;;;;;;5012802;28;20221;-68
2023/11/23 01:05:50;;;;;;;1999.90;999.90;;;7.70;99.90;;;;;;5012810;28;20641;-69
2023/11/23 01:08:16;;;;;;;1999.90;999.90;;;7.70;99.90;;;;;;5012764;28;20432;-69
2023/11/23 01:10:42;;;;;;;1999.90;999.90;;;7.70;1.00;;;;;;5012693;28;20235;-69
2023/11/23 01:13:07;;;;;;;1999.90;999.90;;;7.70;1.00;;;;;;5012223;28;20445;-69
2023/11/23 01:15:33;;;;;;;1999.90;999.90;;;7.70;99.90;;;;;;5012238;28;20495;-69
2023/11/23 01:17:59;;;;;;;1999.90;999.90;;;7.60;99.90;;;;;;5012569;28;20192;-69
2023/11/23 01:20:24;;;;;;;1999.90;999.90;;;7.20;1.00;;;;;;5012418;28;20169;-69
2023/11/23 01:22:50;;;;;;;1999.90;999.90;;;7.60;1.00;;;;;;5012622;28;20548;-69
2023/11/23 01:25:15;;;;;;;1999.90;999.90;;;7.50;1.00;;;;;;5012427;28;20734;-69
2023/11/23 01:27:41;;;;;;;1999.90;999.90;;;7.40;1.00;;;;;;5012703;28;20167;-69
2023/11/23 01:30:07;;;;;;;1999.90;999.90;;;7.50;1.00;;;;;;5012443;28;20205;-69
2023/11/23 01:32:33;;;;;;;1999.90;999.90;;;7.50;1.00;;;;;;5015066;28;20688;-69
2023/11/23 01:34:59;;;;;;;1999.90;999.90;;;7.50;1.00;;;;;;5015968;28;20447;-69
2023/11/23 01:37:24;;;;;;;1999.90;999.90;;;7.50;1.00;;;;;;5016348;28;20228;-69
2023/11/23 01:39:50;;;;;;;1999.90;999.90;;;7.40;1.00;;;;;;5016100;28;20223;-69
2023/11/23 01:42:15;;;;;;;1999.90;999.90;;;7.50;1.00;;;;;;5016066;28;20185;-69
2023/11/23 01:44:41;;;;;;;1999.90;999.90;;;7.50;1.00;;;;;;5016154;28;20180;-69
2023/11/23 01:47:10;;;;;;;1999.90;999.90;;;7.50;1.00;;;;;;5016021;28;20184;-69
2023/11/23 01:49:38;;;;;;;1999.90;999.90;;;7.40;1.00;;;;;;5016132;28;20656;-69
2023/11/23 01:52:03;;;;;;;1999.90;999.90;;;7.40;5.40;;;;;;5015819;28;20430;-69
2023/11/23 01:54:29;;;;;;;1999.90;999.90;;;7.40;22.40;;;;;;5015855;28;20443;-69
2023/11/23 01:56:56;;;;;;;1999.90;999.90;;;7.40;30.70;;;;;;5015434;28;20245;-69
2023/11/23 01:59:22;;;;;;;1999.90;999.90;;;7.40;30.70;;;;;;5015848;28;20606;-69
2023/11/23 02:01:48;;;;;;;1999.90;999.90;;;7.40;33.00;;;;;;5015514;28;20558;-69
2023/11/23 02:04:13;;;;;;;1999.90;999.90;;;7.50;46.90;;;;;;5015623;28;20412;-69
2023/11/23 02:06:39;;;;;;;1999.90;999.90;;;7.50;58.50;;;;;;5015316;28;20860;-69
2023/11/23 02:09:05;;;;;;;1999.90;999.90;;;7.50;54.30;;;;;;5015688;28;20723;-69
2023/11/23 02:11:31;;;;;;;1999.90;999.90;;;7.50;65.40;;;;;;5015464;28;20259;-69
2023/11/23 02:13:58;;;;;;;1999.90;999.90;;;7.50;83.60;;;;;;5015484;28;20186;-69
2023/11/23 02:16:24;;;;;;;1999.90;999.90;;;7.50;91.80;;;;;;5014993;28;20418;-68
2023/11/23 02:18:49;;;;;;;1999.90;999.90;;;7.50;89.30;;;;;;5015386;28;20401;-69
2023/11/23 02:21:15;;;;;;;1999.90;999.90;;;7.50;99.10;;;;;;5015600;28;20280;-69
2023/11/23 02:23:40;;;;;;;1999.90;999.90;;;7.50;99.90;;;;;;5015117;28;20197;-69
2023/11/23 02:26:06;;;;;;;1999.90;999.90;;;7.60;99.90;;;;;;5015048;28;20181;-69
2023/11/23 02:28:33;;;;;;;1999.90;999.90;;;7.60;99.90;;;;;;5015201;28;20256;-69
2023/11/23 02:30:59;;;;;;;1999.90;999.90;;;7.50;99.90;;;;;;5015336;28;20200;-69
2023/11/23 02:33:24;;;;;;;1999.90;999.90;;;7.60;99.90;;;;;;5015303;28;20408;-69
2023/11/23 02:35:50;;;;;;;1999.90;999.90;;;7.60;99.90;;;;;;5014771;28;20169;-69
2023/11/23 02:38:15;;;;;;;1999.90;999.90;;;7.60;99.90;;;;;;5015108;28;20167;-69
2023/11/23 02:40:41;;;;;;;1999.90;999.90;;;7.70;99.90;;;;;;5014712;28;20571;-69
2023/11/23 02:43:07;;;;;;;1999.90;999.90;;;7.70;99.90;;;;;;5014639;28;20316;-69
2023/11/23 02:45:33;;;;;;;1999.90;999.90;;;7.70;99.90;;;;;;5014751;28;20171;-69
2023/11/23 02:47:58;;;;;;;1999.90;999.90;;;7.80;99.90;;;;;;5014738;28;20486;-69
2023/11/23 02:50:25;;;;;;;1999.90;999.90;;;8.00;99.90;;;;;;5014881;28;20569;-69
2023/11/23 02:52:52;;;;;;;1999.90;999.90;;;7.70;99.90;;;;;;5014740;28;20546;-68
2023/11/23 02:55:19;;;;;;;1999.90;999.90;;;7.70;99.90;;;;;;5014640;28;20487;-69
2023/11/23 02:57:45;;;;;;;1999.90;999.90;;;7.70;99.90;;;;;;5014710;28;20946;-69
2023/11/23 03:00:14;;;;;;;1999.90;999.90;;;7.80;99.90;;;;;;5014815;28;20406;-69
2023/11/23 03:02:40;;;;;;;1999.90;999.90;;;7.70;99.90;;;;;;5014111;28;20400;-69
2023/11/23 03:05:06;;;;;;;1999.90;999.90;;;7.80;99.90;;;;;;5013885;28;20459;-69
2023/11/23 03:07:31;;;;;;;1999.90;999.90;;;7.80;99.90;;;;;;5014011;28;20224;-69
2023/11/23 03:09:57;;;;;;;1999.90;999.90;;;7.80;99.90;;;;;;5014905;28;20907;-69
2023/11/23 03:12:23;;;;;;;1999.90;999.90;;;7.80;99.90;;;;;;5014463;28;20193;-69
2023/11/23 03:14:49;;;;;;;1999.90;999.90;;;7.90;99.90;;;;;;5014152;28;20225;-69
2023/11/23 03:17:14;;;;;;;1999.90;999.90;;;7.90;99.90;;;;;;5014368;28;20192;-69
2023/11/23 03:19:40;;;;;;;1999.90;999.90;;;7.90;99.90;;;;;;5014209;28;20172;-69
2023/11/23 03:22:07;;;;;;;1999.90;999.90;;;7.90;99.90;;;;;;5014132;28;20222;-69
2023/11/23 03:24:32;;;;;;;1999.90;999.90;;;7.90;99.90;;;;;;5014035;28;20404;-69
2023/11/23 03:26:58;;;;;;;1999.90;999.90;;;7.80;99.90;;;;;;5013877;28;20412;-69
2023/11/23 03:29:24;;;;;;;1999.90;999.90;;;7.80;99.90;;;;;;5014443;28;20188;-68
2023/11/23 03:31:49;;;;;;;1999.90;999.90;;;7.90;99.90;;;;;;5013985;28;20181;-69
2023/11/23 03:34:15;;;;;;;1999.90;999.90;;;7.90;99.90;;;;;;5013969;28;20201;-69
2023/11/23 03:36:40;;;;;;;1999.90;999.90;;;7.80;99.90;;;;;;5014290;28;20166;-68
2023/11/23 03:39:09;;;;;;;1999.90;999.90;;;7.80;99.90;;;;;;5013742;28;20207;-69
2023/11/23 03:41:34;;;;;;;1999.90;999.90;;;7.90;99.90;;;;;;5013824;28;20217;-69
2023/11/23 03:44:00;;;;;;;1999.90;999.90;;;7.90;99.90;;;;;;5013920;28;20449;-69
2023/11/23 03:46:26;;;;;;;1999.90;999.90;;;7.90;99.90;;;;;;5013794;28;20635;-68
2023/11/23 03:48:52;;;;;;;1999.90;999.90;;;8.00;99.90;;;;;;5013729;28;20177;-69
2023/11/23 03:51:17;;;;;;;1999.90;999.90;;;8.00;99.90;;;;;;5013451;28;20439;-69
2023/11/23 03:53:43;;;;;;;1999.90;999.90;;;8.00;99.90;;;;;;5012846;28;20443;-68
2023/11/23 03:56:15;;;;;;;1999.90;999.90;;;8.10;99.90;;;;;;5013483;28;20563;-69
2023/11/23 03:58:41;;;;;;;1999.90;999.90;;;8.00;99.90;;;;;;5014086;28;20170;-69
2023/11/23 04:01:07;;;;;;;1999.90;999.90;;;8.10;99.90;;;;;;5013988;28;20417;-69
2023/11/23 04:03:32;;;;;;;1999.90;999.90;;;8.10;99.90;;;;;;5013567;28;20413;-69
2023/11/23 04:05:58;;;;;;;1999.90;999.90;;;8.10;99.90;;;;;;5013347;28;20202;-69
2023/11/23 04:08:24;;;;;;;1999.90;999.90;;;8.10;99.90;;;;;;5013932;28;20169;-69
2023/11/23 04:10:49;;;;;;;1999.90;999.90;;;8.40;99.90;;;;;;5013794;28;20956;-69
2023/11/23 04:13:15;;;;;;;1999.90;999.90;;;8.10;99.90;;;;;;5013441;28;20176;-70
2023/11/23 04:15:40;;;;;;;1999.90;999.90;;;8.20;99.90;;;;;;5013246;28;20675;-69
2023/11/23 04:18:06;;;;;;;1999.90;999.90;;;8.20;99.90;;;;;;5013214;28;20170;-68
2023/11/23 04:20:31;;;;;;;1999.90;999.90;;;8.20;99.90;;;;;;5013229;28;20192;-69
2023/11/23 04:22:57;;;;;;;1999.90;999.90;;;8.30;99.90;;;;;;5013443;28;20167;-69
2023/11/23 04:25:23;;;;;;;1999.90;999.90;;;8.30;99.90;;;;;;5012975;28;20176;-69
2023/11/23 04:27:48;;;;;;;1999.90;999.90;;;8.30;99.90;;;;;;5013185;28;20248;-69
2023/11/23 04:30:14;;;;;;;1999.90;999.90;;;8.60;99.90;;;;;;5013263;28;20270;-68
2023/11/23 04:32:39;;;;;;;1999.90;999.90;;;8.30;99.90;;;;;;5013778;28;20170;-69
2023/11/23 04:35:05;;;;;;;1999.90;999.90;;;8.30;99.90;;;;;;5014022;28;20184;-69
2023/11/23 04:37:32;;;;;;;1999.90;999.90;;;8.40;99.90;;;;;;5014583;28;20198;-69
2023/11/23 04:39:58;;;;;;;1999.90;999.90;;;8.40;99.90;;;;;;5014548;28;20967;-69
2023/11/23 04:42:23;;;;;;;1999.90;999.90;;;8.30;99.90;;;;;;5014007;28;20607;-69
2023/11/23 04:44:49;;;;;;;1999.90;999.90;;;8.40;99.90;;;;;;5014226;28;20237;-69
2023/11/23 04:47:14;;;;;;;1999.90;999.90;;;8.40;99.90;;;;;;5015052;28;20178;-69
2023/11/23 04:49:40;;;;;;;1999.90;999.90;;;8.50;99.90;;;;;;5014803;28;20257;-69
2023/11/23 04:52:06;;;;;;;1999.90;999.90;;;8.60;99.90;;;;;;5014521;28;20193;-68
2023/11/23 04:54:31;;;;;;;1999.90;999.90;;;8.50;99.90;;;;;;5013445;28;20206;-69
2023/11/23 04:56:57;;;;;;;1999.90;999.90;;;8.50;99.90;;;;;;5012837;28;20265;-69
2023/11/23 04:59:22;;;;;;;1999.90;999.90;;;8.50;99.90;;;;;;5013036;28;20172;-69
2023/11/23 05:01:48;;;;;;;1999.90;999.90;;;8.50;99.90;;;;;;5012618;28;20193;-68
2023/11/23 05:04:13;;;;;;;1999.90;999.90;;;8.50;99.90;;;;;;5013206;28;20175;-69
2023/11/23 05:06:39;;;;;;;1999.90;999.90;;;8.50;99.90;;;;;;5012558;28;20281;-69
2023/11/23 05:09:05;;;;;;;1999.90;999.90;;;8.60;99.90;;;;;;5012740;28;20656;-69
2023/11/23 05:11:30;;;;;;;1999.90;999.90;;;8.60;99.90;;;;;;5012849;28;20193;-68
2023/11/23 05:14:04;;;;;;;1999.90;999.90;;;8.70;99.90;;;;;;5012657;28;20289;-70
2023/11/23 05:16:30;;;;;;;1999.90;999.90;;;8.70;99.90;;;;;;5012898;28;20172;-69
2023/11/23 05:18:56;;;;;;;1999.90;999.90;;;8.60;99.90;;;;;;5012902;28;20398;-69
2023/11/23 05:21:22;;;;;;;1999.90;999.90;;;8.60;99.90;;;;;;5012999;28;20621;-69
2023/11/23 05:23:47;;;;;;;1999.90;999.90;;;8.70;99.90;;;;;;5013317;28;20440;-69
2023/11/23 05:26:13;;;;;;;1999.90;999.90;;;8.90;99.90;;;;;;5013018;28;20177;-69
2023/11/23 05:28:39;;;;;;;1999.90;999.90;;;8.70;99.90;;;;;;5013360;28;20175;-69
2023/11/23 05:31:04;;;;;;;1999.90;999.90;;;8.70;99.90;;;;;;5013015;28;20267;-69
2023/11/23 05:33:30;;;;;;;1999.90;999.90;;;8.60;99.90;;;;;;5013160;28;20535;-70
2023/11/23 05:35:55;;;;;;;1999.90;999.90;;;8.70;99.90;;;;;;5013089;28;20202;-69
2023/11/23 05:38:22;;;;;;;1999.90;999.90;;;8.70;99.90;;;;;;5014936;28;20639;-69
2023/11/23 05:40:48;;;;;;;1999.90;999.90;;;8.90;99.90;;;;;;5014713;28;20559;-69
2023/11/23 05:43:15;;;;;;;1999.90;999.90;;;8.80;99.90;;;;;;5014683;28;20425;-69
2023/11/23 05:45:40;;;;;;;1999.90;999.90;;;8.80;99.90;;;;;;5014131;28;20410;-69
2023/11/23 05:48:06;;;;;;;1999.90;999.90;;;8.80;99.90;;;;;;5015218;28;20403;-69
2023/11/23 05:50:31;;;;;;;1999.90;999.90;;;8.70;99.90;;;;;;5014315;28;20711;-69
2023/11/23 05:52:57;;;;;;;1999.90;999.90;;;8.90;99.90;;;;;;5014090;28;20194;-69
2023/11/23 05:55:22;;;;;;;1999.90;999.90;;;8.80;99.90;;;;;;5013935;28;20669;-69
2023/11/23 05:57:48;;;;;;;1999.90;999.90;;;8.80;99.90;;;;;;5014474;28;20253;-69
2023/11/23 06:00:14;;;;;;;1999.90;999.90;;;8.40;99.90;;;;;;5013883;28;20171;-68
2023/11/23 06:02:41;;;;;;;1999.90;999.90;;;8.80;99.90;;;;;;5014090;28;20179;-69
2023/11/23 06:05:06;;;;;;;1999.90;999.90;;;8.80;99.90;;;;;;5014137;28;20408;-69
2023/11/23 06:07:32;;;;;;;1999.90;999.90;;;8.80;99.90;;;;;;5013970;28;20429;-69
2023/11/23 06:10:01;;;;;;;1999.90;999.90;;;8.80;99.90;;;;;;5014256;28;20543;-69
2023/11/23 06:12:26;;;;;;;1999.90;999.90;;;8.80;99.90;;;;;;5013055;28;20188;-69
2023/11/23 06:14:52;;;;;;;1999.90;999.90;;;8.80;99.90;;;;;;5011149;28;20514;-69
2023/11/23 06:17:18;;;;;;;1999.90;999.90;;;8.90;99.90;;;;;;5012292;28;20706;-69
2023/11/23 06:19:44;;;;;;;1999.90;999.90;;;8.90;99.90;;;;;;5015152;28;20161;-69
2023/11/23 06:22:11;;;;;;;1999.90;999.90;;;8.90;99.90;;;;;;5014785;28;20426;-69
2023/11/23 06:24:36;;;;;;;1999.90;999.90;;;8.90;99.90;;;;;;5014906;28;20169;-69
2023/11/23 06:27:03;;;;;;;1999.90;999.90;;;8.90;99.90;;;;;;5014667;28;20437;-69
2023/11/23 06:29:28;;;;;;;1999.90;999.90;;;8.90;99.90;;;;;;5014820;28;20550;-69
2023/11/23 06:31:56;;;;;;;1999.90;999.90;;;8.80;99.90;;;;;;5014705;28;20509;-69
2023/11/23 06:34:22;;;;;;;1999.90;999.90;;;8.90;99.90;;;;;;5014604;28;20201;-69
2023/11/23 06:36:49;;;;;;;1999.90;999.90;;;8.90;99.90;;;;;;5014754;28;20421;-69
2023/11/23 06:39:23;;;;;;;1999.90;999.90;;;8.90;99.90;;;;;;5014659;28;20555;-69
2023/11/23 06:41:53;;;;;;;1999.90;999.90;;;8.90;99.90;;;;;;5014550;28;20470;-69
2023/11/23 06:44:22;;;;;;;1999.90;999.90;;;8.90;99.90;;;;;;5014510;28;20832;-69
2023/11/23 06:46:48;;;;;;;1999.90;999.90;;;8.90;99.90;;;;;;5014250;28;20404;-69
2023/11/23 06:49:15;;;;;;;1999.90;999.90;;;8.90;99.90;;;;;;5014397;28;20414;-69
2023/11/23 06:51:41;;;;;;;1999.90;999.90;;;9.00;99.90;;;;;;5014146;28;20208;-69
2023/11/23 06:54:06;;;;;;;1999.90;999.90;;;8.90;99.90;;;;;;5014236;28;20452;-69
2023/11/23 06:56:32;;;;;;;1999.90;999.90;;;8.90;99.90;;;;;;5016229;28;20430;-69
2023/11/23 06:58:58;;;;;;;1999.90;999.90;;;8.90;99.90;;;;;;5017054;28;20569;-69
2023/11/23 07:01:24;;;;;;;1999.90;999.90;;;9.00;99.90;;;;;;5017058;28;20187;-70
2023/11/23 07:03:50;;;;;;;1999.90;999.90;;;9.00;99.90;;;;;;5017218;28;20514;-69
2023/11/23 07:06:16;;;;;;;1999.90;999.90;;;9.00;99.90;;;;;;5017238;28;20206;-70
2023/11/23 07:08:41;;;;;;;1999.90;999.90;;;9.00;99.90;;;;;;5017255;28;20427;-68
2023/11/23 07:11:07;;;;;;;1999.90;999.90;;;9.00;99.90;;;;;;5014617;28;20431;-69
2023/11/23 07:13:34;;;;;;;1999.90;999.90;;;9.00;99.90;;;;;;5014726;28;20642;-69
2023/11/23 07:16:02;;;;;;;1999.90;999.90;;;9.00;99.90;;;;;;5015032;28;20483;-69
2023/11/23 07:18:28;;;;;;;1999.90;999.90;;;9.00;99.90;;;;;;5014688;28;20456;-69
2023/11/23 07:20:55;;;;;;;1999.90;999.90;;;9.10;99.90;;;;;;5014226;28;20421;-69
2023/11/23 07:23:23;;;;;;;1999.90;999.90;;;9.10;99.90;;;;;;5014550;28;20187;-69
2023/11/23 07:25:49;;;;;;;1999.90;999.90;;;9.10;99.90;;;;;;5014444;28;20490;-69
2023/11/23 07:28:15;;;;;;;1999.90;999.90;;;9.10;99.90;;;;;;5013907;28;20827;-69
2023/11/23 07:30:41;;;;;;;1999.90;999.90;;;9.20;99.90;;;;;;5014040;28;20199;-69
2023/11/23 07:33:07;;;;;;;1999.90;999.90;;;9.20;99.90;;;;;;5014476;28;20430;-69
2023/11/23 07:35:34;;;;;;;1999.90;999.90;;;9.20;99.90;;;;;;5014087;28;20452;-69
2023/11/23 07:38:00;;;;;;;1999.90;999.90;;;9.30;99.90;;;;;;5014442;28;20566;-69
2023/11/23 07:40:26;;;;;;;1999.90;999.90;;;9.10;99.90;;;;;;5014087;28;20403;-69
2023/11/23 07:42:52;;;;;;;1999.90;999.90;;;9.30;99.90;;;;;;5014094;28;20411;-69
2023/11/23 07:45:17;;;;;;;1999.90;999.90;;;9.30;99.90;;;;;;5013914;28;20202;-69
2023/11/23 07:47:43;;;;;;;1999.90;999.90;;;9.30;99.90;;;;;;5014355;28;20178;-69
2023/11/23 07:50:15;;;;;;;1999.90;999.90;;;9.30;99.90;;;;;;5014190;28;20174;-69
2023/11/23 07:52:41;;;;;;;1999.90;999.90;;;9.40;99.90;;;;;;5013796;28;20412;-69
2023/11/23 07:55:10;;;;;;;1999.90;999.90;;;9.40;99.90;;;;;;5013587;28;20956;-69
2023/11/23 07:57:36;;;;;;;1999.90;999.90;;;9.40;99.90;;;;;;5013713;28;20433;-69
2023/11/23 08:00:04;;;;;;;1999.90;999.90;;;9.50;99.90;;;;;;5013272;28;20913;-69
2023/11/23 08:02:30;;;;;;;1999.90;999.90;;;9.50;99.90;;;;;;5012276;28;20737;-69
2023/11/23 08:04:56;;;;;;;1999.90;999.90;;;9.50;99.90;;;;;;5013293;28;20415;-69
2023/11/23 08:07:22;;;;;;;1999.90;999.90;;;9.50;99.90;;;;;;5013770;28;20403;-69
2023/11/23 08:09:48;;;;;;;1999.90;999.90;;;9.60;99.90;;;;;;5012822;28;20411;-69
2023/11/23 08:12:13;;;;;;;1999.90;999.90;;;9.60;91.80;;;;;;5012838;28;20250;-69
2023/11/23 08:14:39;;;;;;;1999.90;999.90;;;9.70;90.90;;;;;;5012805;28;20492;-69
2023/11/23 08:17:05;;;;;;;1999.90;999.90;;;9.60;74.50;;;;;;5012458;28;20256;-69
2023/11/23 08:19:31;;;;;;;1999.90;999.90;;;9.60;75.30;;;;;;5012881;28;20175;-69
2023/11/23 08:21:57;;;;;;;1999.90;999.90;;;9.60;63.70;;;;;;5012587;28;20427;-69
2023/11/23 08:24:22;;;;;;;1999.90;999.90;;;9.70;56.20;;;;;;5012691;28;20430;-69
2023/11/23 08:26:49;;;;;;;1999.90;999.90;;;9.60;45.20;;;;;;5012710;28;20171;-69
2023/11/23 08:29:16;;;;;;;1999.90;999.90;;;9.60;68.40;;;;;;5012716;28;20563;-69
2023/11/23 08:31:43;;;;;;;1999.90;999.90;;;9.60;54.40;;;;;;5012526;28;20445;-69
2023/11/23 08:34:10;;;;;;;1999.90;999.90;;;9.60;49.60;;;;;;5012357;28;20459;-69
2023/11/23 08:36:35;;;;;;;1999.90;999.90;;;9.50;63.50;;;;;;5012281;28;20938;-69
2023/11/23 08:39:02;;;;;;;1999.90;999.90;;;9.70;68.90;;;;;;5012409;28;20449;-69
2023/11/23 08:41:30;;;;;;;1999.90;999.90;;;9.70;64.50;;;;;;5011880;28;20434;-69
2023/11/23 08:43:56;;;;;;;1999.90;999.90;;;9.70;68.50;;;;;;5012482;28;20406;-69
2023/11/23 08:46:22;;;;;;;1999.90;999.90;;;9.80;53.70;;;;;;5012168;28;20454;-69
2023/11/23 08:48:48;;;;;;;1999.90;999.90;;;9.80;48.40;;;;;;5012294;28;20465;-69
2023/11/23 08:51:14;;;;;;;1999.90;999.90;;;9.80;43.00;;;;;;5012175;28;20939;-69
2023/11/23 08:53:40;;;;;;;1999.90;999.90;;;9.80;44.10;;;;;;5012142;28;20183;-69
2023/11/23 08:56:06;;;;;;;1999.90;999.90;;;9.90;50.40;;;;;;5012032;28;20513;-69
2023/11/23 08:58:32;;;;;;;1999.90;999.90;;;9.90;37.70;;;;;;5012239;28;21117;-69
2023/11/23 09:00:58;;;;;;;1999.90;999.90;;;10.00;40.00;;;;;;5012006;28;20521;-69
2023/11/23 09:03:23;;;;;;;1999.90;999.90;;;10.00;29.20;;;;;;5012172;28;20180;-69
2023/11/23 09:05:49;;;;;;;1999.90;999.90;;;10.00;18.70;;;;;;5011972;28;20267;-69
2023/11/23 09:08:14;;;;;;;1999.90;999.90;;;10.00;12.50;;;;;;5012128;28;20183;-69
2023/11/23 09:10:40;;;;;;;1999.90;999.90;;;9.90;7.20;;;;;;5011999;28;20580;-69
2023/11/23 09:13:05;;;;;;;1999.90;999.90;;;10.00;10.50;;;;;;5012198;28;20535;-69
2023/11/23 09:15:31;;;;;;;1999.90;999.90;;;10.00;1.00;;;;;;5011710;28;20205;-69
2023/11/23 09:17:57;;;;;;;1999.90;999.90;;;10.00;1.00;;;;;;5011978;28;20179;-69
2023/11/23 09:20:23;;;;;;;1999.90;999.90;;;10.20;1.00;;;;;;5011788;28;20694;-69
2023/11/23 09:22:51;;;;;;;1999.90;999.90;;;10.00;1.00;;;;;;5011811;28;20201;-69
2023/11/23 09:25:18;;;;;;;1999.90;999.90;;;10.00;1.00;;;;;;5010294;28;20182;-67
2023/11/23 09:27:44;;;;;;;1999.90;999.90;;;10.10;1.00;;;;;;5008579;28;20427;-69
2023/11/23 09:30:11;;;;;;;1999.90;999.90;;;10.10;1.00;;;;;;5007597;28;20425;-68
2023/11/23 09:32:38;;;;;;;1999.90;999.90;;;10.20;1.00;;;;;;5006525;28;20514;-68
2023/11/23 09:35:06;;;;;;;1999.90;999.90;;;10.20;1.00;;;;;;5008070;28;20989;-68
2023/11/23 09:37:32;;;;;;;1999.90;999.90;;;10.20;1.00;;;;;;5007461;28;20416;-68
2023/11/23 09:39:58;;;;;;;1999.90;999.90;;;10.30;1.00;;;;;;5007998;28;20468;-69
2023/11/23 09:42:26;;;;;;;1999.90;999.90;;;10.20;1.00;;;;;;5005908;28;20427;-69
2023/11/23 09:44:57;;;;;;;1999.90;999.90;;;10.50;1.00;;;;;;5006690;28;20448;-69
2023/11/23 09:47:31;;;;;;;1999.90;999.90;;;10.40;1.00;;;;;;5007614;28;20425;-69
2023/11/23 09:50:01;;;;;;;1999.90;999.90;;;10.60;1.00;;;;;;5008256;28;20422;-67
2023/11/23 09:52:39;;;;;;;1999.90;999.90;;;10.50;1.00;;;;;;4991558;28;20464;-69
2023/11/23 09:55:07;;;;;;;1999.90;999.90;;;10.50;1.00;;;;;;5011394;28;20458;-69
2023/11/23 09:57:35;;;;;;;1999.90;999.90;;;10.50;1.00;;;;;;5012198;28;20501;-69
2023/11/23 10:00:08;;;;;;;1999.90;999.90;;;10.50;1.00;;;;;;5011535;28;21005;-69
2023/11/23 10:02:36;;;;;;;1999.90;999.90;;;10.50;1.00;;;;;;5013784;28;20454;-69
2023/11/23 10:05:05;;;;;;;1999.90;999.90;;;10.70;1.00;;;;;;5012859;28;20410;-68
2023/11/23 10:07:32;;;;;;;1999.90;999.90;;;10.50;1.00;;;;;;5014768;28;20411;-68
2023/11/23 10:09:58;;;;;;;1999.90;999.90;;;10.70;1.00;;;;;;5014347;28;20930;-69
2023/11/23 10:12:26;;;;;;;1999.90;999.90;;;10.40;1.00;;;;;;5014096;28;20458;-68
2023/11/23 10:14:55;;;;;;;1999.90;999.90;;;10.60;1.00;;;;;;5014171;28;20529;-69
2023/11/23 10:17:20;;;;;;;1999.90;999.90;;;10.50;1.00;;;;;;5013341;28;20461;-68
2023/11/23 10:19:47;;;;;;;1999.90;999.90;;;10.60;1.00;;;;;;5005137;28;20411;-68
2023/11/23 10:22:15;;;;;;;1999.90;999.90;;;10.60;1.00;;;;;;5031014;28;20200;-69
2023/11/23 10:24:48;;;;;;;1999.90;999.90;;;10.80;1.00;;;;;;5015775;28;20502;-68
2023/11/23 10:27:19;;;;;;;1999.90;999.90;;;10.70;1.00;;;;;;5008076;28;20426;-69
2023/11/23 10:29:48;;;;;;;1999.90;999.90;;;10.60;1.00;;;;;;5019631;28;20996;-69
2023/11/23 10:32:17;;;;;;;1999.90;999.90;;;10.60;1.00;;;;;;5023139;28;20461;-69
2023/11/23 10:34:43;;;;;;;1999.90;999.90;;;10.60;1.00;;;;;;5021667;28;20448;-69
2023/11/23 10:37:16;;;;;;;1999.90;999.90;;;10.60;1.00;;;;;;5025776;28;20414;-69
2023/11/23 10:39:43;;;;;;;1999.90;999.90;;;10.80;1.00;;;;;;5035967;28;20255;-68
2023/11/23 10:42:09;;;;;;;1999.90;999.90;;;10.70;1.00;;;;;;5034962;28;20441;-69
2023/11/23 10:44:35;;;;;;;1999.90;999.90;;;10.70;1.00;;;;;;5034725;28;20430;-68
2023/11/23 10:47:03;;;;;;;1999.90;999.90;;;10.80;1.00;;;;;;5033956;28;20415;-69
2023/11/23 10:49:36;;;;;;;1999.90;999.90;;;10.70;1.00;;;;;;5027855;28;20445;-68
2023/11/23 10:52:03;;;;;;;1999.90;999.90;;;10.80;1.00;;;;;;5027676;28;20436;-69
2023/11/23 10:54:29;;;;;;;1999.90;999.90;;;10.70;1.00;;;;;;5013929;28;20530;-68
2023/11/23 10:56:59;;;;;;;1999.90;999.90;;;10.80;1.00;;;;;;5019806;28;20517;-69
2023/11/23 10:59:27;;;;;;;1999.90;999.90;;;10.80;1.00;;;;;;5005485;28;20553;-68
2023/11/23 11:01:56;;;;;;;1999.90;999.90;;;10.90;1.00;;;;;;5013746;28;20430;-69
2023/11/23 11:04:22;;;;;;;1999.90;999.90;;;11.00;1.00;;;;;;5013837;28;20403;-69
2023/11/23 11:06:52;;;;;;;1999.90;999.90;;;10.70;1.00;;;;;;5013344;28;20420;-68
2023/11/23 11:09:17;;;;;;;1999.90;999.90;;;11.00;1.00;;;;;;5013760;28;20438;-68
2023/11/23 11:11:54;;;;;;;1999.90;999.90;;;11.00;1.00;;;;;;5013387;28;20467;-69
2023/11/23 11:14:34;;;;;;;1999.90;999.90;;;11.10;1.00;;;;;;5011967;28;20694;-68
2023/11/23 11:17:04;;;;;;;1999.90;999.90;;;11.10;1.00;;;;;;5011900;28;20435;-68
2023/11/23 11:19:50;;;;;;;1999.90;999.90;;;11.00;1.00;;;;;;5025760;28;20480;-69
2023/11/23 11:22:16;;;;;;;1999.90;999.90;;;11.10;1.00;;;;;;5013519;28;20514;-67
2023/11/23 11:24:42;;;;;;;1999.90;999.90;;;11.10;1.00;;;;;;5013551;28;20415;-68
2023/11/23 11:27:14;;;;;;;1999.90;999.90;;;11.10;1.00;;;;;;5013131;28;20439;-68
2023/11/23 11:29:52;;;;;;;1999.90;999.90;;;11.10;1.00;;;;;;5013137;28;20446;-68
2023/11/23 11:32:19;;;;;;;1999.90;999.90;;;11.20;1.00;;;;;;5013696;28;20783;-68
2023/11/23 11:34:45;;;;;;;1999.90;999.90;;;11.20;1.00;;;;;;5013265;28;21335;-68
2023/11/23 11:37:12;;;;;;;1999.90;999.90;;;11.10;1.00;;;;;;5013639;28;20458;-68
2023/11/23 11:39:39;;;;;;;1999.90;999.90;;;11.20;99.90;;;;;;5018820;28;20171;-68
2023/11/23 11:42:13;;;;;;;1999.90;999.90;;;11.20;1.00;;;;;;5023635;28;20849;-68
2023/11/23 11:44:43;;;;;;;1999.90;999.90;;;11.20;1.00;;;;;;5015612;28;21040;-68
2023/11/23 11:47:10;;;;;;;1999.90;999.90;;;11.20;1.00;;;;;;5031700;28;20438;-69
2023/11/23 11:49:37;;;;;;;1999.90;999.90;;;11.30;1.00;;;;;;5033344;28;20421;-67
2023/11/23 11:52:05;;;;;;;1999.90;999.90;;;11.20;99.90;;;;;;5033084;28;20859;-68
2023/11/23 11:54:31;;;;;;;1999.90;999.90;;;11.20;1.00;;;;;;5033040;28;20501;-69
2023/11/23 11:56:57;;;;;;;1999.90;999.90;;;11.20;99.90;;;;;;5033016;28;20434;-68
2023/11/23 11:59:25;;;;;;;1999.90;999.90;;;11.20;99.90;;;;;;5005400;28;20769;-68
2023/11/23 12:01:50;;;;;;;1999.90;999.90;;;11.30;99.90;;;;;;5013115;28;20283;-69
2023/11/23 12:04:20;;;;;;;1999.90;999.90;;;11.30;99.90;;;;;;5013060;28;20502;-68